Rawalpindi, Pakistan
Current Conditions -  °F | °C
As of 5:00 PM on Wednesday 22 Oct 2014 (Local Time) from OPRN Reporting Station
Few Clouds Few Clouds  
Wind Chill: 84°   Ceiling: Unl
Heat Index: 84°   Visibility: 5mi
Dew Point: 61°   Wind: 14mph
Humidity: 45%   Direction: 270°W
Pressure: NA   Gusts: NA
Location:  33.6°N, 73.04°E
Report Text: OPRN 221200Z 27012KT 8000 FEW100 29/16 Q1016.9/30.03
Loading
Personal Weather Stations






























Interactive Weather Map
Tropical Storm Tracking
New forecast layout! Learn more

10-Day Weather Forecast

Advertisements
Track Severe Weather on mobile